TVF43KB LFTH-LFPO
Flight info
| Callsign | TVF43KB |
|---|---|
| Flight time | N/A |
| Altitude | 38000 |
| Route | LFTH BIRG2W ROMAM LUXAN LSE DANBO BUSIL ARDO9W LFPO |
| Aircraft | A20N/M-STD/S |
Departure
| Time | 2026-04-16 18:02 |
|---|---|
| Airport | Toulon-Hyères Airport (LFTH) |
Arrival
| Time | N/A |
|---|---|
| Airport | Paris-Orly Airport (LFPO) |
| Time | Latitude | Longitude | Altitude | Speed | Heading |
|---|---|---|---|---|---|
| 2026-04-16 17:48 | 43.09369 | 6.15775 | 13 ft | 0 kts | 81° |
| 2026-04-16 17:56 | 43.09364 | 6.15729 | 15 ft | 6 kts | 81° |
| 2026-04-16 17:57 | 43.09363 | 6.15704 | 16 ft | 1 kts | 122° |
| 2026-04-16 17:57 | 43.09363 | 6.15700 | 16 ft | 0 kts | 155° |
| 2026-04-16 17:57 | 43.09364 | 6.15698 | 16 ft | 0 kts | 173° |
| 2026-04-16 17:58 | 43.09356 | 6.15695 | 16 ft | 9 kts | 195° |
| 2026-04-16 17:58 | 43.09300 | 6.15638 | 13 ft | 8 kts | 229° |
| 2026-04-16 17:58 | 43.09266 | 6.15593 | 13 ft | 13 kts | 221° |
| 2026-04-16 17:58 | 43.09172 | 6.15395 | 10 ft | 27 kts | 288° |
| 2026-04-16 17:59 | 43.09277 | 6.15233 | 12 ft | 20 kts | 315° |
| 2026-04-16 17:59 | 43.09363 | 6.15112 | 11 ft | 16 kts | 314° |
| 2026-04-16 17:59 | 43.09441 | 6.15006 | 12 ft | 23 kts | 315° |
| 2026-04-16 17:59 | 43.09626 | 6.14752 | 10 ft | 28 kts | 316° |
| 2026-04-16 18:00 | 43.09769 | 6.14669 | 9 ft | 21 kts | 41° |
| 2026-04-16 18:00 | 43.09846 | 6.14803 | 11 ft | 16 kts | 53° |
| 2026-04-16 18:00 | 43.09944 | 6.14973 | 12 ft | 25 kts | 51° |
| 2026-04-16 18:00 | 43.10067 | 6.15183 | 11 ft | 31 kts | 51° |
| 2026-04-16 18:01 | 43.10254 | 6.15506 | 10 ft | 49 kts | 51° |
| 2026-04-16 18:01 | 43.10471 | 6.15871 | 13 ft | 43 kts | 51° |
| 2026-04-16 18:01 | 43.10580 | 6.16088 | 13 ft | 11 kts | 50° |
| 2026-04-16 18:01 | 43.10593 | 6.16087 | 13 ft | 0 kts | 311° |
| 2026-04-16 18:02 | 43.10591 | 6.16078 | 15 ft | 7 kts | 269° |
| 2026-04-16 18:02 | 43.10429 | 6.15804 | 12 ft | 75 kts | 232° |
| 2026-04-16 18:02 | 43.09938 | 6.14958 | 13 ft | 150 kts | 232° |
| 2026-04-16 18:02 | 43.09206 | 6.13679 | 651 ft | 170 kts | 231° |
| 2026-04-16 18:03 | 43.08465 | 6.12432 | 1763 ft | 164 kts | 232° |
| 2026-04-16 18:03 | 43.07764 | 6.11173 | 2314 ft | 173 kts | 235° |
| 2026-04-16 18:03 | 43.06897 | 6.09938 | 2702 ft | 187 kts | 217° |
| 2026-04-16 18:03 | 43.05716 | 6.09088 | 3204 ft | 197 kts | 200° |
| 2026-04-16 18:04 | 43.04346 | 6.08621 | 3535 ft | 218 kts | 188° |
| 2026-04-16 18:04 | 43.02757 | 6.08628 | 3910 ft | 238 kts | 169° |
| 2026-04-16 18:04 | 43.01158 | 6.09460 | 4418 ft | 254 kts | 149° |
| 2026-04-16 18:04 | 42.99671 | 6.10858 | 4991 ft | 268 kts | 140° |
| 2026-04-16 18:05 | 42.98551 | 6.12886 | 5760 ft | 270 kts | 105° |
| 2026-04-16 18:05 | 42.98506 | 6.15415 | 6620 ft | 271 kts | 70° |
| 2026-04-16 18:05 | 42.99521 | 6.17570 | 7427 ft | 274 kts | 45° |
| 2026-04-16 18:05 | 43.00901 | 6.19351 | 8294 ft | 277 kts | 39° |
| 2026-04-16 18:06 | 43.02554 | 6.20730 | 9201 ft | 280 kts | 15° |
| 2026-04-16 18:06 | 43.04472 | 6.20759 | 10108 ft | 285 kts | 341° |
| 2026-04-16 18:06 | 43.06228 | 6.19431 | 10852 ft | 296 kts | 323° |
| 2026-04-16 18:06 | 43.07953 | 6.17688 | 11303 ft | 317 kts | 333° |
| 2026-04-16 18:07 | 43.10034 | 6.16541 | 11805 ft | 335 kts | 342° |
| 2026-04-16 18:07 | 43.12362 | 6.15689 | 12375 ft | 353 kts | 347° |
| 2026-04-16 18:07 | 43.14809 | 6.15020 | 12988 ft | 368 kts | 350° |
| 2026-04-16 18:07 | 43.17405 | 6.14468 | 13649 ft | 381 kts | 352° |
| 2026-04-16 18:08 | 43.20032 | 6.14022 | 14472 ft | 386 kts | 353° |
| 2026-04-16 18:08 | 43.22730 | 6.13640 | 15336 ft | 390 kts | 354° |
| 2026-04-16 18:08 | 43.25425 | 6.13311 | 16153 ft | 394 kts | 355° |
| 2026-04-16 18:08 | 43.28201 | 6.13010 | 16974 ft | 398 kts | 355° |
| 2026-04-16 18:09 | 43.30959 | 6.12737 | 17760 ft | 402 kts | 356° |
| 2026-04-16 18:09 | 43.33782 | 6.12475 | 18529 ft | 407 kts | 356° |
| 2026-04-16 18:09 | 43.36602 | 6.12107 | 19195 ft | 411 kts | 351° |
| 2026-04-16 18:09 | 43.39414 | 6.11407 | 19876 ft | 414 kts | 348° |
| 2026-04-16 18:10 | 43.42251 | 6.10562 | 20561 ft | 418 kts | 347° |
| 2026-04-16 18:10 | 43.45097 | 6.09651 | 21227 ft | 421 kts | 347° |
| 2026-04-16 18:10 | 43.47940 | 6.08705 | 21887 ft | 425 kts | 346° |
| 2026-04-16 18:10 | 43.50829 | 6.07721 | 22555 ft | 428 kts | 346° |
| 2026-04-16 18:11 | 43.53740 | 6.06715 | 23186 ft | 431 kts | 346° |
| 2026-04-16 18:11 | 43.56664 | 6.05694 | 23787 ft | 435 kts | 346° |
| 2026-04-16 18:11 | 43.59591 | 6.04663 | 24304 ft | 438 kts | 346° |
| 2026-04-16 18:11 | 43.62569 | 6.03609 | 24824 ft | 441 kts | 346° |
| 2026-04-16 18:12 | 43.65518 | 6.02560 | 25348 ft | 443 kts | 346° |
| 2026-04-16 18:12 | 43.68534 | 6.01485 | 25862 ft | 446 kts | 345° |
| 2026-04-16 18:12 | 43.71526 | 6.00415 | 26352 ft | 449 kts | 345° |
| 2026-04-16 18:12 | 43.74569 | 5.99323 | 26976 ft | 448 kts | 345° |
| 2026-04-16 18:13 | 43.77568 | 5.98246 | 27724 ft | 445 kts | 345° |
| 2026-04-16 18:13 | 43.80571 | 5.97164 | 28428 ft | 443 kts | 345° |
| 2026-04-16 18:13 | 43.83523 | 5.96099 | 29125 ft | 441 kts | 345° |
| 2026-04-16 18:13 | 43.86464 | 5.95036 | 29831 ft | 438 kts | 345° |
| 2026-04-16 18:14 | 43.89428 | 5.93963 | 30475 ft | 436 kts | 345° |
| 2026-04-16 18:14 | 43.92334 | 5.92910 | 31032 ft | 434 kts | 345° |
| 2026-04-16 18:14 | 43.95271 | 5.91844 | 31603 ft | 432 kts | 345° |
| 2026-04-16 18:14 | 43.98153 | 5.90797 | 32147 ft | 431 kts | 345° |
| 2026-04-16 18:15 | 44.01059 | 5.89739 | 32661 ft | 429 kts | 345° |
| 2026-04-16 18:15 | 44.03932 | 5.88693 | 33166 ft | 428 kts | 345° |
| 2026-04-16 18:15 | 44.06831 | 5.87635 | 33693 ft | 427 kts | 345° |
| 2026-04-16 18:15 | 44.09667 | 5.86601 | 34180 ft | 426 kts | 345° |
| 2026-04-16 18:16 | 44.12567 | 5.85542 | 34419 ft | 430 kts | 345° |
| 2026-04-16 18:16 | 44.15462 | 5.84484 | 34449 ft | 440 kts | 345° |
| 2026-04-16 18:16 | 44.21511 | 5.82270 | 34798 ft | 450 kts | 345° |
| 2026-04-16 18:17 | 44.24502 | 5.81174 | 35237 ft | 448 kts | 345° |
| 2026-04-16 18:17 | 44.27521 | 5.80068 | 35678 ft | 447 kts | 345° |
| 2026-04-16 18:17 | 44.30534 | 5.78963 | 36086 ft | 446 kts | 345° |
| 2026-04-16 18:17 | 44.33512 | 5.77868 | 36497 ft | 445 kts | 345° |
| 2026-04-16 18:18 | 44.36516 | 5.76762 | 36905 ft | 444 kts | 345° |
| 2026-04-16 18:18 | 44.39512 | 5.75658 | 37308 ft | 443 kts | 345° |
| 2026-04-16 18:18 | 44.42467 | 5.74568 | 37693 ft | 442 kts | 345° |
| 2026-04-16 18:18 | 44.45454 | 5.73466 | 37968 ft | 437 kts | 344° |
| 2026-04-16 18:19 | 44.48354 | 5.72393 | 38069 ft | 436 kts | 344° |
| 2026-04-16 18:19 | 44.51325 | 5.71291 | 38107 ft | 439 kts | 344° |
| 2026-04-16 18:19 | 44.57270 | 5.69080 | 38143 ft | 445 kts | 344° |
| 2026-04-16 18:20 | 44.63233 | 5.66860 | 38142 ft | 442 kts | 344° |
| 2026-04-16 18:20 | 44.69144 | 5.64657 | 38154 ft | 440 kts | 344° |
| 2026-04-16 18:21 | 44.75068 | 5.62444 | 38170 ft | 441 kts | 344° |
| 2026-04-16 18:21 | 44.81030 | 5.60211 | 38167 ft | 442 kts | 344° |
| 2026-04-16 18:22 | 44.86964 | 5.57983 | 38169 ft | 442 kts | 344° |
| 2026-04-16 18:22 | 44.92915 | 5.55743 | 38170 ft | 441 kts | 344° |
| 2026-04-16 18:23 | 44.98801 | 5.53405 | 38165 ft | 440 kts | 341° |
| 2026-04-16 18:23 | 45.04645 | 5.50686 | 38180 ft | 442 kts | 340° |
| 2026-04-16 18:24 | 45.10423 | 5.47885 | 38180 ft | 441 kts | 340° |
| 2026-04-16 18:24 | 45.16222 | 5.45037 | 38186 ft | 441 kts | 339° |
| 2026-04-16 18:25 | 45.22041 | 5.42160 | 38188 ft | 442 kts | 339° |
| 2026-04-16 18:25 | 45.27833 | 5.39284 | 38183 ft | 442 kts | 339° |
| 2026-04-16 18:26 | 45.33629 | 5.36398 | 38187 ft | 442 kts | 339° |
| 2026-04-16 18:26 | 45.39418 | 5.33508 | 38185 ft | 442 kts | 339° |
| 2026-04-16 18:27 | 45.45248 | 5.30589 | 38185 ft | 443 kts | 339° |
| 2026-04-16 18:27 | 45.51058 | 5.27673 | 38182 ft | 443 kts | 339° |
| 2026-04-16 18:28 | 45.56853 | 5.24756 | 38180 ft | 442 kts | 339° |
| 2026-04-16 18:28 | 45.62634 | 5.21841 | 38185 ft | 442 kts | 339° |
| 2026-04-16 18:29 | 45.68461 | 5.18896 | 38186 ft | 444 kts | 339° |
| 2026-04-16 18:29 | 45.74269 | 5.15953 | 38185 ft | 443 kts | 338° |
| 2026-04-16 18:30 | 45.80078 | 5.13004 | 38187 ft | 443 kts | 338° |
| 2026-04-16 18:30 | 45.85879 | 5.10054 | 38184 ft | 443 kts | 338° |
| 2026-04-16 18:31 | 45.91716 | 5.07077 | 38189 ft | 443 kts | 338° |
| 2026-04-16 18:31 | 45.97516 | 5.04112 | 38187 ft | 443 kts | 338° |
| 2026-04-16 18:32 | 46.03321 | 5.01138 | 38189 ft | 442 kts | 338° |
| 2026-04-16 18:32 | 46.09109 | 4.98166 | 38197 ft | 443 kts | 338° |
| 2026-04-16 18:33 | 46.14927 | 4.95172 | 38196 ft | 444 kts | 338° |
| 2026-04-16 18:33 | 46.20735 | 4.92175 | 38201 ft | 443 kts | 338° |
| 2026-04-16 18:34 | 46.26528 | 4.89181 | 38205 ft | 443 kts | 338° |
| 2026-04-16 18:34 | 46.32313 | 4.86184 | 38205 ft | 443 kts | 338° |
| 2026-04-16 18:35 | 46.38110 | 4.83172 | 38205 ft | 443 kts | 337° |
| 2026-04-16 18:35 | 46.43936 | 4.80141 | 38203 ft | 443 kts | 337° |
| 2026-04-16 18:36 | 46.49726 | 4.77121 | 38207 ft | 443 kts | 337° |
| 2026-04-16 18:36 | 46.55530 | 4.74084 | 38212 ft | 443 kts | 337° |
| 2026-04-16 18:37 | 46.61321 | 4.71045 | 38218 ft | 444 kts | 337° |